首页
METAR-TAF:

METAR-TAF

机场 :

拉奥罗拉国际机场

瓜地馬拉, 危地马拉

纬度: 14-35N, 经度: 090-31W, 海拔: 1489米

当前天气观测

该预报发布于21分钟前的23:00 UTC
风速4节,风向西南
温度 17°C
湿度 94%
气压 1023 hPa
能见度10公里或以上
少量云层高于1800英尺
散云层高于2400英尺, 积雨云.
多云层高于9000英尺
雷暴, 小雨

METAR: MGGT 232300Z 22004KT 9999 -TSRA FEW018 SCT024CB BKN090 17/16 Q1023 A3021 CB/TS/LTNG E/SE/S/SSW/SW/W

时间: 17:21 (23:21 UTC)

预报

该预报发布于7小时和21分钟前的16:00 UTC
预报有效从23日的 18点(UTC)到 24日的 18点(UTC)
风速10节,风向
能見度: 8000
散云层高于1800英尺
短暂存在
从 23日的 20点(UTC)到 24日的 03点(UTC)
能見度: 7000
散云层高于2000英尺, 塔状积云.
雷暴, 雨
几率 40%
从 24日的 03点(UTC)到 24日的 13点(UTC)
能見度: 8000
多云层高于1400英尺
雨, 毛毛雨
成为
从 24日的 02点(UTC)到 24日的 04点(UTC)
风速节,风向
散云层高于1600英尺
成为
从 24日的 14点(UTC)到 24日的 16点(UTC)
少量云层高于1800英尺

TAF: MGGT 231600Z 2318/2418 18010KT 8000 SCT018 TX26/2320Z TN17/2412Z TEMPO 2320/2403 7000 TSRA SCT020TCU FEWO25CB PROB40 2403/2413 8000 RADZ BKN014 BECMG 2402/2404 00000KT SCT016 BECMG 2414/2416 FEW018

超过4000个机场的气象观测和天气预报(METAR&TAF报告)。

可查询的气象台以黄色和红色小点在地图上表示。

将鼠标移到小点上方,可查看气象台名称。

然后点击查看天气观测和预报。

如需切换地图:点击带黑十字的绿色按钮放大地图;点击带横线的绿色按钮缩小地图;或者点击绿色箭头查看邻近地区的地图。


METAR-TAF: